Time;durP1;ratioP1;P1;durP2;ratioP2;P2;SDS_P1;SDS_P2;PMS_P1;PMS_P2;Temp;Humidity;BMP_temperature;BMP_pressure;BME280_temperature;BME280_humidity;BME280_pressure;Samples;Min_cycle;Max_cycle;Signal;HPM_P1;HPM_P2
2023/01/15 00:02:21;;;;;;;116.60;34.60;;;;;;;4.67;68.81;97981.11;105328;1254;108620;-65
2023/01/15 00:04:50;;;;;;;54.70;17.90;;;;;;;4.71;68.91;97980.32;105291;1256;97902;-65
2023/01/15 00:07:17;;;;;;;47.30;19.50;;;;;;;4.73;68.48;97978.66;105338;1255;98403;-65
2023/01/15 00:09:44;;;;;;;60.60;28.30;;;;;;;4.76;68.30;97981.45;105330;1274;97912;-65
2023/01/15 00:12:11;;;;;;;54.40;27.90;;;;;;;4.80;68.50;97978.79;105297;1255;97933;-65
2023/01/15 00:14:38;;;;;;;34.90;12.10;;;;;;;4.81;68.26;97974.86;105285;1255;98611;-65
2023/01/15 00:17:05;;;;;;;16.40;6.00;;;;;;;4.82;68.21;97974.08;105320;1251;99155;-64
2023/01/15 00:19:33;;;;;;;8.30;2.90;;;;;;;4.86;67.58;97965.77;105305;1257;99287;-65
2023/01/15 00:21:59;;;;;;;5.80;2.90;;;;;;;4.92;67.16;97963.73;105369;1256;97893;-65
2023/01/15 00:29:59;;;;;;;8.00;4.00;;;;;;;5.14;66.46;97963.36;105296;1257;97943;-65
2023/01/15 00:32:28;;;;;;;17.90;9.60;;;;;;;5.19;66.22;97958.69;105388;1254;97905;-65
2023/01/15 00:34:57;;;;;;;16.10;5.60;;;;;;;5.24;66.11;97954.03;105346;1255;110886;-64
2023/01/15 00:37:25;;;;;;;7.30;3.00;;;;;;;5.27;66.24;97953.61;105305;1266;98559;-65
2023/01/15 00:39:52;;;;;;;5.60;2.50;;;;;;;5.28;66.15;97951.03;105369;1257;108669;-66
2023/01/15 00:42:19;;;;;;;4.90;2.00;;;;;;;5.32;65.55;97946.73;105339;1258;97901;-65
2023/01/15 00:44:47;;;;;;;3.20;2.00;;;;;;;5.35;65.68;97944.07;105381;1256;97987;-64
2023/01/15 00:47:14;;;;;;;7.60;4.70;;;;;;;5.38;65.65;97943.21;105305;1255;97898;-64
2023/01/15 00:49:42;;;;;;;37.50;19.20;;;;;;;5.37;66.21;97943.92;105216;1260;97983;-64
2023/01/15 00:52:10;;;;;;;57.60;30.20;;;;;;;5.36;66.10;97944.70;105190;1258;97891;-65
2023/01/15 00:54:38;;;;;;;21.90;7.40;;;;;;;5.36;66.21;97946.61;105269;1257;98005;-65
2023/01/15 00:57:05;;;;;;;29.00;8.30;;;;;;;5.36;66.29;97939.39;105376;1254;98798;-71
2023/01/15 00:59:32;;;;;;;26.20;6.90;;;;;;;5.35;66.14;97929.63;105339;1264;97918;-66
2023/01/15 01:01:59;;;;;;;15.20;4.00;;;;;;;5.37;66.05;97927.58;105320;1264;98049;-67
2023/01/15 01:04:26;;;;;;;17.60;4.40;;;;;;;5.38;66.06;97921.96;105326;1266;97930;-67
2023/01/15 01:06:53;;;;;;;43.70;13.60;;;;;;;5.38;65.98;97918.87;105320;1255;97976;-67
2023/01/15 01:09:20;;;;;;;203.70;77.90;;;;;;;5.39;65.85;97922.63;105302;1254;97888;-66
2023/01/15 01:11:48;;;;;;;99.20;31.80;;;;;;;5.40;65.68;97919.33;105256;1254;98376;-67
2023/01/15 01:14:15;;;;;;;35.20;9.50;;;;;;;5.43;65.80;97917.04;105359;1252;97910;-67
2023/01/15 01:16:43;;;;;;;11.10;4.60;;;;;;;5.48;65.66;97910.08;105307;1264;97981;-67
2023/01/15 01:19:13;;;;;;;36.70;9.50;;;;;;;5.47;66.11;97909.20;105291;1255;97898;-66
2023/01/15 01:21:42;;;;;;;32.80;10.50;;;;;;;5.48;66.01;97911.86;105314;1251;98614;-65
2023/01/15 01:24:11;;;;;;;28.80;8.90;;;;;;;5.48;65.85;97908.41;105334;1252;111929;-67
2023/01/15 01:26:38;;;;;;;16.80;5.70;;;;;;;5.50;65.61;97904.39;105371;1251;99371;-66
2023/01/15 01:29:06;;;;;;;30.70;10.10;;;;;;;5.52;65.90;97902.56;105267;1251;98708;-65
2023/01/15 01:31:33;;;;;;;25.00;9.10;;;;;;;5.50;65.86;97896.43;105304;1255;97899;-66
2023/01/15 01:34:00;;;;;;;18.10;6.40;;;;;;;5.49;65.96;97894.08;105326;1254;97983;-65
2023/01/15 01:36:33;;;;;;;14.00;5.70;;;;;;;5.46;65.97;97894.33;105298;1255;99286;-66
2023/01/15 01:39:01;;;;;;;14.80;7.10;;;;;;;5.44;66.22;97894.52;105416;1254;99079;-66
2023/01/15 01:41:28;;;;;;;17.90;8.30;;;;;;;5.43;65.76;97891.39;105341;1254;107563;-67
2023/01/15 01:43:55;;;;;;;12.50;4.90;;;;;;;5.43;65.86;97887.70;105391;1266;97883;-68
2023/01/15 01:46:23;;;;;;;13.80;6.00;;;;;;;5.45;65.76;97876.59;105360;1254;97905;-68
2023/01/15 01:48:54;;;;;;;9.10;4.80;;;;;;;5.44;66.33;97872.52;105402;1254;112165;-66
2023/01/15 01:51:26;;;;;;;6.60;3.80;;;;;;;5.42;66.41;97867.50;105370;1254;99148;-65
2023/01/15 01:53:55;;;;;;;7.50;3.80;;;;;;;5.39;66.17;97863.56;105351;1264;109680;-66
2023/01/15 01:56:22;;;;;;;75.30;35.20;;;;;;;5.37;66.41;97857.25;105345;1254;97951;-67
2023/01/15 01:58:53;;;;;;;21.70;8.70;;;;;;;5.38;65.94;97853.39;105399;1250;97877;-69
2023/01/15 02:01:23;;;;;;;12.10;4.80;;;;;;;5.39;66.34;97856.15;105323;1251;112205;-68
2023/01/15 02:03:52;;;;;;;5.80;3.10;;;;;;;5.37;66.37;97852.80;105293;1255;98047;-66
2023/01/15 02:06:20;;;;;;;5.50;3.20;;;;;;;5.37;66.05;97849.16;105172;1263;107297;-66
2023/01/15 02:08:47;;;;;;;4.40;2.30;;;;;;;5.37;66.35;97848.14;105200;1254;97899;-65
2023/01/15 02:11:23;;;;;;;2.10;1.30;;;;;;;5.35;66.50;97836.63;105253;1255;97902;-64
2023/01/15 02:14:15;;;;;;;6.60;2.50;;;;;;;5.36;65.88;97835.81;105322;1256;112198;-64
2023/01/15 02:17:09;;;;;;;4.60;2.90;;;;;;;5.37;66.26;97834.48;105205;1254;97912;-64
2023/01/15 02:19:57;;;;;;;4.10;2.10;;;;;;;5.36;66.35;97826.35;105160;1270;108465;-68
2023/01/15 02:22:51;;;;;;;3.70;2.30;;;;;;;5.35;66.22;97820.50;105309;1265;99228;-66
2023/01/15 02:25:42;;;;;;;3.50;2.30;;;;;;;5.35;66.31;97805.52;105385;1254;97904;-66
2023/01/15 02:28:19;;;;;;;13.80;5.20;;;;;;;5.34;66.41;97806.93;105361;1254;112001;-67
2023/01/15 02:30:57;;;;;;;6.50;3.00;;;;;;;5.33;66.16;97812.61;105343;1254;97848;-65
2023/01/15 02:33:36;;;;;;;8.10;2.90;;;;;;;5.34;66.01;97807.44;105372;1254;109615;-66
2023/01/15 02:36:07;;;;;;;3.50;2.10;;;;;;;5.35;66.56;97805.55;105373;1251;97899;-65
2023/01/15 02:38:36;;;;;;;;;;;;;;;5.35;66.18;97812.73;105352;1257;97895;-66
2023/01/15 02:41:07;;;;;;;4.50;2.10;;;;;;;5.36;65.94;97814.40;105360;1254;111758;-70
2023/01/15 02:43:37;;;;;;;4.00;2.40;;;;;;;5.40;65.86;97813.23;105315;1261;97877;-65
2023/01/15 02:46:06;;;;;;;4.60;2.80;;;;;;;5.44;65.81;97808.28;105257;1254;108492;-66
2023/01/15 02:48:37;;;;;;;3.60;1.80;;;;;;;5.47;65.85;97803.52;105378;1254;97882;-66
2023/01/15 02:51:11;;;;;;;5.30;4.80;;;;;;;5.50;66.11;97801.50;105360;1256;97905;-67
2023/01/15 02:53:41;;;;;;;4.50;2.40;;;;;;;5.51;65.52;97800.43;105356;1251;112559;-68
2023/01/15 02:56:30;;;;;;;7.30;3.40;;;;;;;5.53;65.46;97802.23;105342;1251;98075;-69
2023/01/15 02:59:03;;;;;;;8.50;3.40;;;;;;;5.58;65.53;97798.14;105296;1257;107507;-65
2023/01/15 03:01:35;;;;;;;5.70;2.80;;;;;;;5.59;65.92;97797.61;105248;1254;97908;-66
2023/01/15 03:04:16;;;;;;;4.40;2.60;;;;;;;5.61;65.85;97794.48;105292;1255;97820;-67
2023/01/15 03:06:43;;;;;;;3.70;1.90;;;;;;;5.60;65.95;97794.29;105330;1257;112172;-65
2023/01/15 03:09:11;;;;;;;2.80;1.60;;;;;;;5.60;65.89;97793.04;105256;1257;98056;-66
2023/01/15 03:11:49;;;;;;;3.40;1.90;;;;;;;5.60;65.81;97794.93;105319;1252;97903;-65
2023/01/15 03:14:39;;;;;;;2.50;1.40;;;;;;;5.62;65.96;97798.05;105362;1264;98029;-65
2023/01/15 03:17:32;;;;;;;5.30;2.00;;;;;;;5.63;65.78;97794.81;105345;1266;97918;-65
2023/01/15 03:20:17;;;;;;;2.80;1.30;;;;;;;5.67;66.19;97793.59;105345;1251;111654;-64
2023/01/15 03:22:51;;;;;;;3.20;1.70;;;;;;;5.71;65.96;97787.54;105333;1264;99193;-65
2023/01/15 03:25:26;;;;;;;3.10;1.80;;;;;;;5.76;66.26;97779.66;105311;1264;108496;-65
2023/01/15 03:27:58;;;;;;;3.10;1.80;;;;;;;5.80;66.11;97778.99;105323;1255;97964;-64
2023/01/15 03:30:26;;;;;;;1.60;1.10;;;;;;;5.84;66.24;97775.17;105367;1255;97833;-65
2023/01/15 03:32:54;;;;;;;3.50;1.40;;;;;;;5.89;66.37;97772.17;105336;1251;97910;-64
2023/01/15 03:35:57;;;;;;;2.00;1.20;;;;;;;5.90;67.23;97762.14;105226;1254;99139;-64
2023/01/15 03:38:31;;;;;;;2.10;1.50;;;;;;;5.89;68.02;97759.55;105230;1263;108113;-64
2023/01/15 03:40:58;;;;;;;2.10;1.20;;;;;;;5.89;68.41;97751.13;105192;1254;97973;-71
2023/01/15 03:43:52;;;;;;;6.30;2.90;;;;;;;5.88;69.06;97745.42;105372;1265;97899;-65
2023/01/15 03:46:58;;;;;;;3.20;1.80;;;;;;;5.87;69.17;97745.52;105335;1264;112167;-66
2023/01/15 03:49:55;;;;;;;1.80;1.20;;;;;;;5.84;69.14;97749.97;105331;1254;98830;-65
2023/01/15 03:52:49;;;;;;;2.80;1.30;;;;;;;5.83;68.97;97750.60;105323;1265;108715;-66
2023/01/15 03:55:26;;;;;;;2.00;1.40;;;;;;;5.81;69.39;97754.23;105339;1254;97978;-64
2023/01/15 03:57:56;;;;;;;1.20;0.80;;;;;;;5.81;69.44;97752.44;105324;1254;99219;-64
2023/01/15 04:00:32;;;;;;;2.50;1.60;;;;;;;5.82;69.59;97756.34;105369;1267;111209;-66
2023/01/15 04:03:02;;;;;;;1.20;0.70;;;;;;;5.83;69.48;97756.19;105332;1251;99166;-67
2023/01/15 04:05:31;;;;;;;1.70;1.10;;;;;;;5.86;69.48;97760.91;105232;1251;108777;-65
2023/01/15 04:08:00;;;;;;;2.70;1.10;;;;;;;5.88;69.16;97765.11;105310;1256;98009;-65
2023/01/15 04:10:27;;;;;;;3.10;1.90;;;;;;;5.90;69.05;97759.69;105367;1254;97918;-66
2023/01/15 04:12:55;;;;;;;2.40;0.90;;;;;;;5.89;68.91;97753.55;105337;1253;99154;-68
2023/01/15 04:15:22;;;;;;;1.50;1.00;;;;;;;5.88;68.50;97746.08;105345;1265;97838;-65
2023/01/15 04:17:49;;;;;;;2.20;1.60;;;;;;;5.87;68.73;97737.02;105319;1254;97918;-64
2023/01/15 04:20:17;;;;;;;1.70;0.90;;;;;;;5.85;68.59;97732.29;105273;1254;97991;-69
2023/01/15 04:22:44;;;;;;;1.60;0.80;;;;;;;5.83;68.73;97720.36;105387;1254;99210;-70
2023/01/15 04:25:11;;;;;;;3.90;2.30;;;;;;;5.81;68.78;97715.27;105347;1264;97899;-67
2023/01/15 04:27:38;;;;;;;3.10;1.70;;;;;;;5.81;68.91;97714.27;105308;1254;97917;-66
2023/01/15 04:30:07;;;;;;;1.70;1.40;;;;;;;5.80;69.19;97717.39;105367;1257;99209;-65
2023/01/15 04:32:34;;;;;;;3.10;1.40;;;;;;;5.82;68.58;97713.88;105363;1254;97877;-67
2023/01/15 04:35:01;;;;;;;1.30;1.00;;;;;;;5.84;68.47;97707.67;105354;1255;97919;-68
2023/01/15 04:37:28;;;;;;;1.60;1.10;;;;;;;5.86;68.70;97699.69;105370;1254;99220;-66
2023/01/15 04:39:55;;;;;;;2.20;1.40;;;;;;;5.87;67.94;97697.91;105338;1264;99284;-64
2023/01/15 04:45:09;;;;;;;3.80;1.90;;;;;;;5.91;68.29;97698.70;105271;1254;99213;-64
2023/01/15 04:47:36;;;;;;;4.80;2.80;;;;;;;5.91;67.96;97696.09;105266;1264;97866;-63
2023/01/15 04:50:04;;;;;;;4.70;2.80;;;;;;;5.91;68.14;97684.89;105331;1255;97965;-64
2023/01/15 04:52:30;;;;;;;3.80;2.00;;;;;;;5.90;68.23;97692.40;105305;1255;97882;-64
2023/01/15 04:54:59;;;;;;;3.60;1.80;;;;;;;5.90;68.10;97692.08;105283;1264;108700;-64
2023/01/15 04:57:26;;;;;;;3.40;1.80;;;;;;;5.90;68.05;97694.31;105213;1257;97924;-64
2023/01/15 04:59:53;;;;;;;3.00;1.50;;;;;;;5.89;68.03;97691.23;105302;1258;98363;-66
2023/01/15 05:02:20;;;;;;;3.00;1.70;;;;;;;5.89;67.88;97696.19;105220;1257;97915;-63
2023/01/15 05:04:49;;;;;;;3.00;1.40;;;;;;;5.88;67.83;97696.92;105313;1257;99967;-67
2023/01/15 05:07:16;;;;;;;2.00;1.10;;;;;;;5.86;67.70;97693.11;105325;1254;108630;-68
2023/01/15 05:09:44;;;;;;;4.40;2.30;;;;;;;5.86;67.61;97697.73;105324;1257;98040;-67
2023/01/15 05:12:11;;;;;;;2.50;1.40;;;;;;;5.86;67.55;97692.11;105329;1250;97918;-66
2023/01/15 05:14:38;;;;;;;1.70;1.50;;;;;;;5.87;67.21;97690.67;105302;1256;97903;-69
2023/01/15 05:17:05;;;;;;;3.20;1.40;;;;;;;5.89;66.94;97683.94;105317;1265;99194;-66
2023/01/15 05:19:32;;;;;;;3.90;2.20;;;;;;;5.91;67.04;97672.22;105254;1266;98004;-66
2023/01/15 05:22:00;;;;;;;4.80;2.30;;;;;;;5.91;66.91;97663.52;105331;1251;99185;-64
2023/01/15 05:24:27;;;;;;;5.10;2.10;;;;;;;5.90;67.13;97664.24;105384;1264;97918;-67
2023/01/15 05:26:54;;;;;;;3.90;1.70;;;;;;;5.87;67.39;97662.84;105380;1266;97886;-67
2023/01/15 05:29:22;;;;;;;2.60;1.90;;;;;;;5.84;67.57;97662.09;105358;1254;97918;-68
2023/01/15 05:31:49;;;;;;;20.50;11.70;;;;;;;5.80;67.45;97655.12;105293;1251;98121;-66
2023/01/15 05:34:16;;;;;;;11.30;5.20;;;;;;;5.77;67.68;97645.79;105322;1266;97911;-66
2023/01/15 05:36:43;;;;;;;15.40;8.40;;;;;;;5.72;67.54;97642.41;105332;1254;97914;-68
2023/01/15 05:39:10;;;;;;;3.80;2.50;;;;;;;5.69;67.61;97639.38;105336;1251;97990;-66
2023/01/15 05:41:50;;;;;;;4.80;2.60;;;;;;;5.65;67.63;97643.81;105368;1267;108781;-64
2023/01/15 05:44:23;;;;;;;9.20;5.80;;;;;;;5.61;67.87;97645.92;105318;1267;97927;-67
2023/01/15 05:46:53;;;;;;;10.90;4.60;;;;;;;5.58;68.06;97646.04;105337;1251;97979;-66
2023/01/15 05:49:23;;;;;;;3.00;2.00;;;;;;;5.55;67.74;97637.40;105311;1257;111207;-66
2023/01/15 05:51:52;;;;;;;7.10;3.70;;;;;;;5.55;67.73;97640.95;105314;1254;99083;-68
2023/01/15 05:54:22;;;;;;;2.40;1.70;;;;;;;5.54;68.02;97640.31;105370;1265;108069;-65
2023/01/15 05:56:50;;;;;;;24.90;19.00;;;;;;;5.55;67.94;97642.63;105344;1252;97879;-65
2023/01/15 05:59:21;;;;;;;5.70;3.20;;;;;;;5.55;68.01;97639.80;105384;1257;98013;-68
2023/01/15 06:01:48;;;;;;;3.80;2.10;;;;;;;5.54;68.09;97637.65;105356;1254;110873;-66
2023/01/15 06:04:19;;;;;;;3.50;1.60;;;;;;;5.50;67.97;97641.52;105338;1251;99134;-66
2023/01/15 06:06:48;;;;;;;;;;;;;;;5.46;68.10;97634.11;105332;1255;108691;-64
2023/01/15 06:09:15;;;;;;;3.20;1.70;;;;;;;5.40;68.37;97633.20;105359;1263;98588;-64
2023/01/15 06:11:42;;;;;;;3.90;2.10;;;;;;;5.36;68.17;97633.30;105376;1251;99090;-64
2023/01/15 06:14:11;;;;;;;1.00;0.80;;;;;;;5.33;68.34;97628.92;105290;1257;97921;-64
2023/01/15 06:16:38;;;;;;;3.30;1.80;;;;;;;5.28;68.32;97626.89;105333;1254;98209;-64
2023/01/15 06:19:09;;;;;;;6.30;2.20;;;;;;;5.26;68.38;97625.57;105379;1251;107648;-64
2023/01/15 06:21:37;;;;;;;3.30;1.70;;;;;;;5.24;68.22;97633.60;105159;1254;97997;-64
2023/01/15 06:24:05;;;;;;;4.00;2.20;;;;;;;5.23;68.17;97631.23;105382;1266;97912;-64
2023/01/15 06:26:32;;;;;;;4.20;2.00;;;;;;;5.24;67.87;97626.66;105287;1256;112259;-68
2023/01/15 06:29:00;;;;;;;3.90;2.50;;;;;;;5.26;68.01;97625.63;105380;1254;98798;-67
2023/01/15 06:31:27;;;;;;;4.70;2.50;;;;;;;5.30;68.09;97611.36;105321;1264;98014;-66
2023/01/15 06:33:55;;;;;;;5.80;3.60;;;;;;;5.34;67.91;97606.72;105393;1257;97815;-65
2023/01/15 06:36:26;;;;;;;8.20;3.50;;;;;;;5.38;67.73;97611.41;105369;1263;98797;-65
2023/01/15 06:38:53;;;;;;;5.00;2.50;;;;;;;5.40;67.85;97607.56;105372;1255;112316;-65
2023/01/15 06:47:20;;;;;;;5.80;3.10;;;;;;;5.44;67.76;97614.91;105297;1270;99214;-66
2023/01/15 06:49:50;;;;;;;;;;;;;;;5.46;67.77;97619.44;105388;1251;97982;-65
2023/01/15 06:52:17;;;;;;;4.30;2.00;;;;;;;5.46;67.51;97628.09;105396;1250;111137;-68
2023/01/15 06:54:44;;;;;;;3.70;1.80;;;;;;;5.48;67.54;97629.13;105375;1254;98891;-65
2023/01/15 06:57:11;;;;;;;20.80;8.30;;;;;;;5.50;67.38;97633.43;105282;1254;99228;-65
2023/01/15 06:59:38;;;;;;;17.90;6.90;;;;;;;5.53;67.05;97629.30;105318;1254;97982;-65
2023/01/15 07:02:06;;;;;;;33.70;10.50;;;;;;;5.56;67.06;97630.54;105289;1252;98489;-70
2023/01/15 07:04:33;;;;;;;17.90;6.90;;;;;;;5.59;67.53;97633.09;105287;1254;97886;-65
2023/01/15 07:07:00;;;;;;;10.60;4.10;;;;;;;5.60;66.99;97634.92;105328;1254;98795;-67
2023/01/15 07:09:27;;;;;;;11.30;4.50;;;;;;;5.62;66.93;97631.80;105242;1254;97895;-68
2023/01/15 07:11:54;;;;;;;7.80;3.50;;;;;;;5.66;66.57;97627.10;105313;1257;98007;-68
2023/01/15 07:14:26;;;;;;;7.20;2.90;;;;;;;5.70;66.48;97629.70;105295;1254;97918;-65
2023/01/15 07:16:54;;;;;;;3.50;2.00;;;;;;;5.72;66.72;97628.98;105309;1254;112217;-66
2023/01/15 07:19:21;;;;;;;3.50;2.00;;;;;;;5.74;66.44;97631.75;105304;1265;99291;-66
2023/01/15 07:21:50;;;;;;;12.10;6.80;;;;;;;5.77;66.49;97639.10;105322;1255;108342;-65
2023/01/15 07:24:17;;;;;;;4.90;2.60;;;;;;;5.79;66.26;97642.26;105282;1255;98023;-65
2023/01/15 07:26:44;;;;;;;5.60;3.20;;;;;;;5.82;65.90;97644.59;105368;1254;98410;-66
2023/01/15 07:29:13;;;;;;;6.70;3.80;;;;;;;5.84;66.06;97646.48;105397;1266;97855;-68
2023/01/15 07:31:40;;;;;;;13.90;5.70;;;;;;;5.86;65.76;97643.34;105356;1264;99084;-65
2023/01/15 07:34:08;;;;;;;306.40;112.00;;;;;;;5.90;65.46;97635.42;105321;1254;108730;-64
2023/01/15 07:36:36;;;;;;;24.50;9.30;;;;;;;5.94;65.03;97635.34;105330;1255;98024;-64
2023/01/15 07:39:05;;;;;;;9.20;3.60;;;;;;;5.99;64.62;97635.88;105300;1254;97908;-64
2023/01/15 07:50:12;;;;;;;75.10;25.80;;;;;;;6.18;64.31;97635.67;105214;1254;99219;-69
2023/01/15 07:52:40;;;;;;;16.30;6.90;;;;;;;6.20;63.74;97628.48;105427;1254;97954;-64
2023/01/15 07:55:09;;;;;;;19.30;6.50;;;;;;;6.24;63.33;97614.19;105348;1258;111882;-65
2023/01/15 07:57:36;;;;;;;547.00;219.80;;;;;;;6.29;62.69;97614.88;105396;1254;99191;-66
2023/01/15 08:00:06;;;;;;;1296.20;441.80;;;;;;;6.35;62.99;97616.81;105330;1254;107962;-63
2023/01/15 08:02:33;;;;;;;92.30;29.50;;;;;;;6.38;62.75;97614.82;105380;1264;97890;-65
2023/01/15 08:05:01;;;;;;;379.30;113.60;;;;;;;6.43;62.40;97615.25;105357;1254;97892;-65
2023/01/15 08:07:28;;;;;;;462.10;137.90;;;;;;;6.46;62.27;97623.33;105329;1254;99115;-67
2023/01/15 08:09:55;;;;;;;399.70;132.50;;;;;;;6.48;63.28;97622.89;105366;1254;98015;-67
2023/01/15 08:15:11;;;;;;;497.00;189.70;;;;;;;6.50;62.63;97604.20;105318;1256;98004;-65
2023/01/15 08:17:44;;;;;;;160.70;43.40;;;;;;;6.50;62.95;97598.92;105405;1254;97884;-67
2023/01/15 08:20:21;;;;;;;930.80;363.80;;;;;;;6.50;62.31;97599.59;105288;1264;112123;-64
2023/01/15 08:22:48;;;;;;;377.00;141.90;;;;;;;6.51;61.81;97594.55;105076;1257;98431;-64
2023/01/15 08:25:19;;;;;;;618.00;231.00;;;;;;;6.54;61.65;97593.95;105319;1254;107379;-64
2023/01/15 08:27:47;;;;;;;284.00;98.50;;;;;;;6.56;62.05;97597.64;105357;1255;97905;-65
2023/01/15 08:30:20;;;;;;;40.80;14.70;;;;;;;6.58;61.68;97602.61;105393;1257;97902;-64
2023/01/15 08:32:47;;;;;;;539.40;196.40;;;;;;;6.59;60.98;97601.76;105257;1251;111885;-67
2023/01/15 08:35:15;;;;;;;204.00;52.30;;;;;;;6.63;61.22;97603.73;105249;1254;97898;-70
2023/01/15 08:37:42;;;;;;;510.30;191.00;;;;;;;6.65;60.41;97603.44;105263;1271;108730;-66
2023/01/15 08:40:12;;;;;;;451.50;171.70;;;;;;;6.69;60.27;97609.13;105230;1251;97950;-67
2023/01/15 08:42:39;;;;;;;120.20;35.60;;;;;;;6.71;60.20;97608.93;105328;1266;98121;-68
2023/01/15 08:45:08;;;;;;;406.60;155.10;;;;;;;6.74;59.45;97604.24;105341;1254;110911;-64
2023/01/15 08:47:36;;;;;;;131.60;41.10;;;;;;;6.77;59.52;97608.59;105330;1257;99218;-64
2023/01/15 08:50:08;;;;;;;187.50;60.30;;;;;;;6.78;59.44;97609.84;105325;1257;108666;-66
2023/01/15 08:52:39;;;;;;;403.20;140.00;;;;;;;6.80;60.29;97609.96;105328;1273;98010;-65
2023/01/15 08:55:07;;;;;;;140.20;46.30;;;;;;;6.81;59.64;97603.19;105350;1255;97835;-67
2023/01/15 08:57:34;;;;;;;54.50;17.50;;;;;;;6.82;59.01;97603.16;105307;1251;112039;-63
2023/01/15 09:00:01;;;;;;;193.70;74.50;;;;;;;6.84;58.86;97596.15;105356;1254;99104;-63
2023/01/15 09:02:28;;;;;;;29.90;11.60;;;;;;;6.86;59.57;97590.30;105268;1255;97911;-63
2023/01/15 09:04:55;;;;;;;60.40;23.90;;;;;;;6.87;58.49;97580.08;105332;1254;97927;-63
2023/01/15 09:07:23;;;;;;;236.10;99.10;;;;;;;6.90;58.51;97575.77;105174;1257;98021;-63
2023/01/15 09:09:50;;;;;;;17.30;7.60;;;;;;;6.93;58.34;97572.38;105296;1257;97912;-66
2023/01/15 09:12:17;;;;;;;21.60;7.30;;;;;;;6.94;58.18;97570.02;105206;1255;98010;-69
2023/01/15 09:14:45;;;;;;;49.60;16.70;;;;;;;6.96;58.04;97566.86;105296;1268;97991;-65
2023/01/15 09:17:27;;;;;;;39.20;14.00;;;;;;;6.98;58.04;97552.54;105285;1257;98582;-63
2023/01/15 09:19:54;;;;;;;10.20;4.90;;;;;;;7.00;57.94;97553.56;105270;1254;98056;-64
2023/01/15 09:22:22;;;;;;;12.60;5.80;;;;;;;7.02;57.80;97554.77;105364;1255;97918;-63
2023/01/15 09:24:49;;;;;;;14.80;7.20;;;;;;;7.04;57.68;97553.99;105261;1255;99198;-67
2023/01/15 09:27:16;;;;;;;10.70;4.20;;;;;;;7.05;56.98;97554.67;105250;1257;97876;-64
2023/01/15 09:29:43;;;;;;;7.40;3.80;;;;;;;7.08;57.74;97552.95;105343;1254;98009;-65
2023/01/15 09:32:11;;;;;;;40.20;19.80;;;;;;;7.10;57.57;97547.44;105302;1251;97925;-65
2023/01/15 09:34:38;;;;;;;9.90;4.60;;;;;;;7.14;57.21;97547.19;105308;1251;97893;-63
2023/01/15 09:37:05;;;;;;;9.40;4.30;;;;;;;7.16;57.80;97543.19;105296;1257;99711;-63
2023/01/15 09:39:32;;;;;;;8.60;4.60;;;;;;;7.19;57.70;97544.79;105284;1254;97918;-64
2023/01/15 09:42:08;;;;;;;16.30;8.10;;;;;;;7.20;57.04;97534.02;105327;1266;98036;-63
2023/01/15 09:44:41;;;;;;;5.80;3.60;;;;;;;7.22;57.44;97526.87;105304;1255;97989;-63
2023/01/15 09:47:35;;;;;;;12.90;4.50;;;;;;;7.22;58.59;97519.52;105333;1257;111883;-63
2023/01/15 09:50:20;;;;;;;10.20;4.20;;;;;;;7.19;58.97;97520.82;105261;1266;99069;-63
2023/01/15 09:52:50;;;;;;;5.40;2.80;;;;;;;7.17;59.55;97515.70;105297;1257;108000;-63
2023/01/15 09:55:21;;;;;;;8.00;3.10;;;;;;;7.13;59.46;97519.61;105272;1265;97892;-63
2023/01/15 09:57:51;;;;;;;4.80;2.20;;;;;;;7.12;60.28;97517.38;105350;1251;98686;-66
2023/01/15 10:00:24;;;;;;;6.00;2.90;;;;;;;7.10;60.68;97520.55;105314;1254;112073;-65
2023/01/15 10:02:57;;;;;;;33.50;19.10;;;;;;;7.08;60.69;97518.69;105360;1257;98424;-66
2023/01/15 10:05:31;;;;;;;8.80;4.20;;;;;;;7.07;61.19;97516.44;105307;1265;107092;-66
2023/01/15 10:08:23;;;;;;;5.40;2.20;;;;;;;7.06;61.07;97512.91;105306;1257;97874;-65
2023/01/15 10:14:42;;;;;;;17.80;11.00;;;;;;;7.00;61.80;97505.56;104919;1261;111834;-63
2023/01/15 10:17:40;;;;;;;8.00;4.10;;;;;;;6.97;62.33;97500.60;104909;1263;98931;-64
2023/01/15 10:20:48;;;;;;;6.70;3.70;;;;;;;6.95;62.08;97494.95;104885;1274;109819;-64
2023/01/15 10:23:15;;;;;;;5.50;3.10;;;;;;;6.90;62.51;97493.13;104757;1273;98079;-63
2023/01/15 10:25:53;;;;;;;8.90;3.40;;;;;;;6.87;62.24;97493.16;104968;1261;99423;-63
2023/01/15 10:28:51;;;;;;;8.70;4.50;;;;;;;6.85;63.40;97492.89;105160;1265;111689;-63
2023/01/15 10:31:23;;;;;;;4.50;2.30;;;;;;;6.78;63.91;97485.90;105200;1257;99328;-65
2023/01/15 10:33:59;;;;;;;6.30;3.40;;;;;;;6.72;64.31;97479.54;105228;1256;108520;-69
2023/01/15 10:36:42;;;;;;;5.00;2.70;;;;;;;6.66;64.76;97476.39;105313;1256;97899;-67
2023/01/15 10:39:19;;;;;;;4.00;2.50;;;;;;;6.60;65.90;97475.02;105143;1254;98686;-66
2023/01/15 10:42:19;;;;;;;5.10;3.00;;;;;;;6.54;66.43;97478.86;105331;1257;111346;-69
2023/01/15 10:45:05;;;;;;;7.10;4.20;;;;;;;6.46;66.45;97475.92;105238;1256;99300;-69
2023/01/15 10:47:35;;;;;;;8.00;4.00;;;;;;;6.39;67.00;97477.20;105352;1257;108396;-70
2023/01/15 10:50:15;;;;;;;7.90;3.50;;;;;;;6.33;67.00;97472.13;105421;1254;97871;-70
2023/01/15 10:52:48;;;;;;;6.90;3.30;;;;;;;6.29;67.69;97466.87;105417;1256;97899;-70
2023/01/15 10:55:27;;;;;;;9.10;3.60;;;;;;;6.24;67.56;97457.15;105351;1264;112128;-70
2023/01/15 10:58:28;;;;;;;9.90;4.90;;;;;;;6.20;67.27;97457.58;105264;1257;99437;-69
2023/01/15 11:01:03;;;;;;;4.30;2.10;;;;;;;6.18;67.11;97453.95;105187;1255;108544;-71
2023/01/15 11:03:40;;;;;;;1.30;1.00;;;;;;;6.17;67.38;97449.89;105307;1256;97975;-69
2023/01/15 11:06:14;;;;;;;3.40;1.70;;;;;;;6.15;66.69;97438.88;105304;1257;98130;-69
2023/01/15 11:08:48;;;;;;;4.70;2.20;;;;;;;6.16;66.61;97433.31;105378;1257;112223;-68
2023/01/15 11:20:35;;;;;;;4.60;1.80;;;;;;;6.25;66.00;97406.59;105117;1259;97992;-66
2023/01/15 11:23:12;;;;;;;4.60;2.50;;;;;;;6.27;66.18;97400.48;105148;1257;112209;-65
2023/01/15 11:25:49;;;;;;;4.60;2.20;;;;;;;6.30;65.90;97402.54;105090;1256;99231;-66
2023/01/15 11:28:17;;;;;;;2.80;1.40;;;;;;;6.31;65.66;97400.90;105071;1256;107149;-68
2023/01/15 11:30:54;;;;;;;3.30;2.20;;;;;;;6.35;65.45;97396.63;104997;1256;98345;-65
2023/01/15 11:33:25;;;;;;;9.10;3.00;;;;;;;6.36;66.11;97392.02;104958;1259;98337;-67
2023/01/15 11:35:57;;;;;;;9.30;3.00;;;;;;;6.37;65.70;97388.89;105141;1253;111141;-68
2023/01/15 11:38:29;;;;;;;71.80;29.20;;;;;;;6.38;65.60;97392.60;105238;1256;98850;-69
2023/01/15 11:41:04;;;;;;;18.50;4.80;;;;;;;6.39;65.85;97387.44;105198;1258;108529;-67
2023/01/15 11:52:15;;;;;;;5.30;2.30;;;;;;;6.43;66.11;97379.38;104948;1256;98468;-64
2023/01/15 11:54:47;;;;;;;2.70;1.40;;;;;;;6.45;65.77;97368.40;105181;1256;108462;-68
2023/01/15 11:57:26;;;;;;;2.70;1.50;;;;;;;6.46;66.02;97366.45;105190;1256;97915;-68
2023/01/15 11:59:54;;;;;;;5.00;2.10;;;;;;;6.48;66.01;97368.95;105309;1257;98260;-71
2023/01/15 12:02:49;;;;;;;4.90;2.10;;;;;;;6.50;66.21;97366.48;105195;1260;98676;-67
2023/01/15 12:05:20;;;;;;;22.40;9.90;;;;;;;6.51;66.04;97360.63;105026;1266;99015;-67
2023/01/15 12:07:51;;;;;;;34.20;11.80;;;;;;;6.52;65.59;97357.88;105170;1266;108102;-67
2023/01/15 12:13:54;;;;;;;10.00;2.70;;;;;;;6.56;65.65;97352.40;105274;1256;98005;-66
2023/01/15 12:16:43;;;;;;;8.80;2.90;;;;;;;6.58;66.10;97356.54;105266;1257;111656;-67
2023/01/15 12:19:39;;;;;;;8.60;3.80;;;;;;;6.59;66.34;97354.33;105177;1255;98414;-67
2023/01/15 12:22:09;;;;;;;53.20;24.70;;;;;;;6.58;66.15;97355.55;105093;1256;108575;-67
2023/01/15 12:24:45;;;;;;;30.30;14.80;;;;;;;6.59;66.45;97356.44;105245;1257;97990;-67
2023/01/15 12:27:35;;;;;;;4.50;2.40;;;;;;;6.59;66.30;97353.82;105278;1256;97832;-66
2023/01/15 12:30:37;;;;;;;3.50;1.50;;;;;;;6.60;66.56;97353.20;105101;1256;112286;-66
2023/01/15 12:33:10;;;;;;;4.10;2.00;;;;;;;6.61;66.41;97351.10;105235;1254;98197;-66
2023/01/15 12:35:42;;;;;;;5.90;2.80;;;;;;;6.62;66.51;97350.91;105207;1254;108333;-67
2023/01/15 12:38:23;;;;;;;2.70;1.40;;;;;;;6.65;66.77;97345.27;105291;1256;98093;-68
2023/01/15 12:40:59;;;;;;;13.40;6.30;;;;;;;6.67;66.54;97341.33;105286;1275;98475;-66